Manchaug, Massachusetts
Current Conditions -  °F | °C
As of 1:54 AM on Friday 28 Nov 2014 (Local Time) from KORH Reporting Station
Overcast Overcast  
Wind Chill: 18°   Ceiling: 5000
Heat Index: 26°   Visibility: 10mi
Dew Point: 24°   Wind: 8mph
Humidity: 92%   Direction: 320°NW
Pressure: 29.95"   Gusts: NA
Location:  42.09°N, 71.75°W
Report Text: KORH 280654Z AUTO 32007KT 10SM FEW016 OVC050 M03/M04 A2995 RMK AO2 SNE0559 SLP157 P0000 T10331044
Loading
Personal Weather Stations






























Interactive Weather Map New forecast layout! Learn more

10-Day Weather Forecast

Advertisements
Track Severe Weather on mobile